sensor_id;sensor_type;location;lat;lon;timestamp;P1;durP1;ratioP1;P2;durP2;ratioP2
13731;SDS011;6937;56.096;12.664;2022-08-21T00:02:12;1.27;;;0.80;;
13731;SDS011;6937;56.096;12.664;2022-08-21T00:04:43;1.73;;;0.90;;
13731;SDS011;6937;56.096;12.664;2022-08-21T00:07:09;2.05;;;0.85;;
13731;SDS011;6937;56.096;12.664;2022-08-21T00:09:34;1.58;;;0.98;;
13731;SDS011;6937;56.096;12.664;2022-08-21T00:12:00;2.15;;;0.98;;
13731;SDS011;6937;56.096;12.664;2022-08-21T00:14:25;2.38;;;1.00;;
13731;SDS011;6937;56.096;12.664;2022-08-21T00:16:50;1.70;;;0.70;;
13731;SDS011;6937;56.096;12.664;2022-08-21T00:19:16;1.63;;;0.80;;
13731;SDS011;6937;56.096;12.664;2022-08-21T00:21:41;2.28;;;0.90;;
13731;SDS011;6937;56.096;12.664;2022-08-21T00:24:07;2.95;;;1.10;;
13731;SDS011;6937;56.096;12.664;2022-08-21T00:26:32;2.08;;;0.82;;
13731;SDS011;6937;56.096;12.664;2022-08-21T00:28:57;3.20;;;1.27;;
13731;SDS011;6937;56.096;12.664;2022-08-21T00:31:23;2.22;;;0.90;;
13731;SDS011;6937;56.096;12.664;2022-08-21T00:33:48;2.80;;;1.10;;
13731;SDS011;6937;56.096;12.664;2022-08-21T00:36:14;2.58;;;0.98;;
13731;SDS011;6937;56.096;12.664;2022-08-21T00:38:40;1.67;;;0.90;;
13731;SDS011;6937;56.096;12.664;2022-08-21T00:41:06;2.83;;;1.00;;
13731;SDS011;6937;56.096;12.664;2022-08-21T00:43:35;3.65;;;1.42;;
13731;SDS011;6937;56.096;12.664;2022-08-21T00:46:03;1.65;;;0.95;;
13731;SDS011;6937;56.096;12.664;2022-08-21T00:48:29;2.35;;;1.08;;
13731;SDS011;6937;56.096;12.664;2022-08-21T00:50:57;3.50;;;1.10;;
13731;SDS011;6937;56.096;12.664;2022-08-21T00:53:26;2.28;;;0.85;;
13731;SDS011;6937;56.096;12.664;2022-08-21T00:55:54;1.95;;;1.05;;
13731;SDS011;6937;56.096;12.664;2022-08-21T00:58:20;2.20;;;1.10;;
13731;SDS011;6937;56.096;12.664;2022-08-21T01:00:47;2.17;;;1.10;;
13731;SDS011;6937;56.096;12.664;2022-08-21T01:03:16;1.77;;;0.90;;
13731;SDS011;6937;56.096;12.664;2022-08-21T01:05:44;4.18;;;1.17;;
13731;SDS011;6937;56.096;12.664;2022-08-21T01:08:11;2.55;;;1.20;;
13731;SDS011;6937;56.096;12.664;2022-08-21T01:10:40;2.90;;;1.00;;
13731;SDS011;6937;56.096;12.664;2022-08-21T01:13:07;2.08;;;1.50;;
13731;SDS011;6937;56.096;12.664;2022-08-21T01:15:36;3.40;;;1.55;;
13731;SDS011;6937;56.096;12.664;2022-08-21T01:18:04;3.92;;;1.80;;
13731;SDS011;6937;56.096;12.664;2022-08-21T01:20:32;3.97;;;2.08;;
13731;SDS011;6937;56.096;12.664;2022-08-21T01:22:58;3.63;;;2.15;;
13731;SDS011;6937;56.096;12.664;2022-08-21T01:25:27;5.13;;;2.13;;
13731;SDS011;6937;56.096;12.664;2022-08-21T01:27:52;4.47;;;2.03;;
13731;SDS011;6937;56.096;12.664;2022-08-21T01:30:19;7.10;;;2.00;;
13731;SDS011;6937;56.096;12.664;2022-08-21T01:32:49;3.50;;;2.03;;
13731;SDS011;6937;56.096;12.664;2022-08-21T01:35:15;5.20;;;2.13;;
13731;SDS011;6937;56.096;12.664;2022-08-21T01:37:42;4.60;;;2.30;;
13731;SDS011;6937;56.096;12.664;2022-08-21T01:40:08;4.60;;;2.53;;
13731;SDS011;6937;56.096;12.664;2022-08-21T01:42:35;4.60;;;2.30;;
13731;SDS011;6937;56.096;12.664;2022-08-21T01:45:02;5.05;;;2.35;;
13731;SDS011;6937;56.096;12.664;2022-08-21T01:47:28;6.47;;;2.58;;
13731;SDS011;6937;56.096;12.664;2022-08-21T01:49:53;2.90;;;2.30;;
13731;SDS011;6937;56.096;12.664;2022-08-21T01:52:18;4.47;;;2.10;;
13731;SDS011;6937;56.096;12.664;2022-08-21T01:54:44;6.93;;;2.80;;
13731;SDS011;6937;56.096;12.664;2022-08-21T01:57:10;4.05;;;2.40;;
13731;SDS011;6937;56.096;12.664;2022-08-21T01:59:37;5.25;;;2.60;;
13731;SDS011;6937;56.096;12.664;2022-08-21T02:02:03;3.95;;;2.40;;
13731;SDS011;6937;56.096;12.664;2022-08-21T02:04:29;6.78;;;2.10;;
13731;SDS011;6937;56.096;12.664;2022-08-21T02:06:55;5.25;;;2.10;;
13731;SDS011;6937;56.096;12.664;2022-08-21T02:09:21;3.60;;;2.03;;
13731;SDS011;6937;56.096;12.664;2022-08-21T02:11:46;5.82;;;2.40;;
13731;SDS011;6937;56.096;12.664;2022-08-21T02:14:13;4.25;;;2.20;;
13731;SDS011;6937;56.096;12.664;2022-08-21T02:16:40;4.53;;;2.00;;
13731;SDS011;6937;56.096;12.664;2022-08-21T02:19:07;4.25;;;2.10;;
13731;SDS011;6937;56.096;12.664;2022-08-21T02:21:34;3.90;;;2.20;;
13731;SDS011;6937;56.096;12.664;2022-08-21T02:23:59;3.78;;;1.92;;
13731;SDS011;6937;56.096;12.664;2022-08-21T02:26:25;4.15;;;1.98;;
13731;SDS011;6937;56.096;12.664;2022-08-21T02:28:51;4.22;;;2.20;;
13731;SDS011;6937;56.096;12.664;2022-08-21T02:31:17;3.40;;;2.17;;
13731;SDS011;6937;56.096;12.664;2022-08-21T02:33:42;3.85;;;2.15;;
13731;SDS011;6937;56.096;12.664;2022-08-21T02:36:08;4.30;;;2.10;;
13731;SDS011;6937;56.096;12.664;2022-08-21T02:38:36;4.70;;;2.03;;
13731;SDS011;6937;56.096;12.664;2022-08-21T02:41:04;2.30;;;1.70;;
13731;SDS011;6937;56.096;12.664;2022-08-21T02:43:34;4.18;;;1.50;;
13731;SDS011;6937;56.096;12.664;2022-08-21T02:46:00;1.92;;;1.35;;
13731;SDS011;6937;56.096;12.664;2022-08-21T02:48:29;3.25;;;1.63;;
13731;SDS011;6937;56.096;12.664;2022-08-21T02:51:06;2.63;;;1.25;;
13731;SDS011;6937;56.096;12.664;2022-08-21T02:53:37;4.10;;;1.58;;
13731;SDS011;6937;56.096;12.664;2022-08-21T02:56:04;1.42;;;1.15;;
13731;SDS011;6937;56.096;12.664;2022-08-21T02:58:33;2.78;;;1.20;;
13731;SDS011;6937;56.096;12.664;2022-08-21T03:01:02;1.50;;;1.27;;
13731;SDS011;6937;56.096;12.664;2022-08-21T03:03:28;2.63;;;1.45;;
13731;SDS011;6937;56.096;12.664;2022-08-21T03:05:54;3.55;;;1.30;;
13731;SDS011;6937;56.096;12.664;2022-08-21T03:08:21;2.58;;;1.30;;
13731;SDS011;6937;56.096;12.664;2022-08-21T03:10:48;2.47;;;1.40;;
13731;SDS011;6937;56.096;12.664;2022-08-21T03:13:15;3.00;;;1.40;;
13731;SDS011;6937;56.096;12.664;2022-08-21T03:15:41;3.13;;;1.40;;
13731;SDS011;6937;56.096;12.664;2022-08-21T03:18:07;2.92;;;1.20;;
13731;SDS011;6937;56.096;12.664;2022-08-21T03:20:34;1.60;;;1.25;;
13731;SDS011;6937;56.096;12.664;2022-08-21T03:23:02;2.10;;;1.30;;
13731;SDS011;6937;56.096;12.664;2022-08-21T03:25:28;2.20;;;1.52;;
13731;SDS011;6937;56.096;12.664;2022-08-21T03:27:57;2.90;;;1.52;;
13731;SDS011;6937;56.096;12.664;2022-08-21T03:30:22;3.10;;;1.50;;
13731;SDS011;6937;56.096;12.664;2022-08-21T03:32:48;3.10;;;1.77;;
13731;SDS011;6937;56.096;12.664;2022-08-21T03:35:14;3.15;;;1.60;;
13731;SDS011;6937;56.096;12.664;2022-08-21T03:37:40;4.07;;;2.00;;
13731;SDS011;6937;56.096;12.664;2022-08-21T03:40:06;3.10;;;1.70;;
13731;SDS011;6937;56.096;12.664;2022-08-21T03:42:38;4.28;;;1.73;;
13731;SDS011;6937;56.096;12.664;2022-08-21T03:45:04;4.53;;;2.17;;
13731;SDS011;6937;56.096;12.664;2022-08-21T03:47:30;3.20;;;1.67;;
13731;SDS011;6937;56.096;12.664;2022-08-21T03:49:56;4.25;;;1.60;;
13731;SDS011;6937;56.096;12.664;2022-08-21T03:52:21;3.33;;;1.80;;
13731;SDS011;6937;56.096;12.664;2022-08-21T03:54:48;4.80;;;2.45;;
13731;SDS011;6937;56.096;12.664;2022-08-21T03:57:15;3.95;;;2.42;;
13731;SDS011;6937;56.096;12.664;2022-08-21T03:59:40;5.28;;;2.25;;
13731;SDS011;6937;56.096;12.664;2022-08-21T04:02:08;6.20;;;2.67;;
13731;SDS011;6937;56.096;12.664;2022-08-21T04:04:34;5.30;;;2.65;;
13731;SDS011;6937;56.096;12.664;2022-08-21T04:06:59;6.88;;;2.50;;
13731;SDS011;6937;56.096;12.664;2022-08-21T04:09:26;6.10;;;2.75;;
13731;SDS011;6937;56.096;12.664;2022-08-21T04:11:51;5.45;;;2.60;;
13731;SDS011;6937;56.096;12.664;2022-08-21T04:14:17;7.35;;;3.13;;
13731;SDS011;6937;56.096;12.664;2022-08-21T04:16:43;3.95;;;2.35;;
13731;SDS011;6937;56.096;12.664;2022-08-21T04:19:09;6.55;;;3.15;;
13731;SDS011;6937;56.096;12.664;2022-08-21T04:21:35;6.13;;;3.15;;
13731;SDS011;6937;56.096;12.664;2022-08-21T04:24:02;4.65;;;2.70;;
13731;SDS011;6937;56.096;12.664;2022-08-21T04:26:27;6.20;;;3.00;;
13731;SDS011;6937;56.096;12.664;2022-08-21T04:28:53;6.22;;;3.00;;
13731;SDS011;6937;56.096;12.664;2022-08-21T04:31:22;5.13;;;2.97;;
13731;SDS011;6937;56.096;12.664;2022-08-21T04:33:48;7.55;;;2.80;;
13731;SDS011;6937;56.096;12.664;2022-08-21T04:36:13;5.57;;;2.70;;
13731;SDS011;6937;56.096;12.664;2022-08-21T04:38:38;5.38;;;2.70;;
13731;SDS011;6937;56.096;12.664;2022-08-21T04:41:04;6.10;;;2.53;;
13731;SDS011;6937;56.096;12.664;2022-08-21T04:43:31;6.65;;;2.70;;
13731;SDS011;6937;56.096;12.664;2022-08-21T04:45:57;5.88;;;2.40;;
13731;SDS011;6937;56.096;12.664;2022-08-21T04:48:25;8.55;;;2.97;;
13731;SDS011;6937;56.096;12.664;2022-08-21T04:51:07;4.18;;;2.35;;
13731;SDS011;6937;56.096;12.664;2022-08-21T04:53:45;7.05;;;2.53;;
13731;SDS011;6937;56.096;12.664;2022-08-21T04:56:14;5.80;;;2.70;;
13731;SDS011;6937;56.096;12.664;2022-08-21T04:58:47;7.70;;;2.50;;
13731;SDS011;6937;56.096;12.664;2022-08-21T05:01:15;5.85;;;2.78;;
13731;SDS011;6937;56.096;12.664;2022-08-21T05:03:44;5.93;;;2.35;;
13731;SDS011;6937;56.096;12.664;2022-08-21T05:06:11;8.40;;;3.15;;
13731;SDS011;6937;56.096;12.664;2022-08-21T05:08:39;4.28;;;1.80;;
13731;SDS011;6937;56.096;12.664;2022-08-21T05:11:08;4.22;;;2.00;;
13731;SDS011;6937;56.096;12.664;2022-08-21T05:13:34;3.60;;;1.90;;
13731;SDS011;6937;56.096;12.664;2022-08-21T05:16:00;6.03;;;1.90;;
13731;SDS011;6937;56.096;12.664;2022-08-21T05:18:26;4.55;;;1.83;;
13731;SDS011;6937;56.096;12.664;2022-08-21T05:20:51;4.25;;;1.45;;
13731;SDS011;6937;56.096;12.664;2022-08-21T05:23:16;4.20;;;1.80;;
13731;SDS011;6937;56.096;12.664;2022-08-21T05:25:42;3.78;;;1.67;;
13731;SDS011;6937;56.096;12.664;2022-08-21T05:28:08;5.05;;;2.10;;
13731;SDS011;6937;56.096;12.664;2022-08-21T05:30:34;4.93;;;1.90;;
13731;SDS011;6937;56.096;12.664;2022-08-21T05:33:01;5.15;;;1.67;;
13731;SDS011;6937;56.096;12.664;2022-08-21T05:35:28;2.80;;;1.80;;
13731;SDS011;6937;56.096;12.664;2022-08-21T05:37:55;4.38;;;1.95;;
13731;SDS011;6937;56.096;12.664;2022-08-21T05:40:21;4.07;;;1.70;;
13731;SDS011;6937;56.096;12.664;2022-08-21T05:42:47;3.15;;;1.52;;
13731;SDS011;6937;56.096;12.664;2022-08-21T05:45:13;3.42;;;1.40;;
13731;SDS011;6937;56.096;12.664;2022-08-21T05:47:39;4.38;;;1.65;;
13731;SDS011;6937;56.096;12.664;2022-08-21T05:50:04;3.78;;;1.48;;
13731;SDS011;6937;56.096;12.664;2022-08-21T05:52:31;4.32;;;1.33;;
13731;SDS011;6937;56.096;12.664;2022-08-21T05:54:56;2.72;;;1.50;;
13731;SDS011;6937;56.096;12.664;2022-08-21T05:57:21;5.25;;;1.70;;
13731;SDS011;6937;56.096;12.664;2022-08-21T05:59:48;5.55;;;1.58;;
13731;SDS011;6937;56.096;12.664;2022-08-21T06:02:16;4.45;;;1.40;;
13731;SDS011;6937;56.096;12.664;2022-08-21T06:04:43;3.10;;;1.35;;
13731;SDS011;6937;56.096;12.664;2022-08-21T06:07:08;4.38;;;1.70;;
13731;SDS011;6937;56.096;12.664;2022-08-21T06:09:34;4.10;;;1.67;;
13731;SDS011;6937;56.096;12.664;2022-08-21T06:12:06;3.92;;;1.42;;
13731;SDS011;6937;56.096;12.664;2022-08-21T06:14:33;2.97;;;1.35;;
13731;SDS011;6937;56.096;12.664;2022-08-21T06:17:06;4.60;;;1.48;;
13731;SDS011;6937;56.096;12.664;2022-08-21T06:19:34;5.20;;;1.58;;
13731;SDS011;6937;56.096;12.664;2022-08-21T06:21:59;3.55;;;1.42;;
13731;SDS011;6937;56.096;12.664;2022-08-21T06:24:25;3.95;;;1.35;;
13731;SDS011;6937;56.096;12.664;2022-08-21T06:26:51;4.25;;;1.40;;
13731;SDS011;6937;56.096;12.664;2022-08-21T06:29:17;2.17;;;1.20;;
13731;SDS011;6937;56.096;12.664;2022-08-21T06:31:44;2.72;;;1.40;;
13731;SDS011;6937;56.096;12.664;2022-08-21T06:34:11;4.55;;;1.40;;
13731;SDS011;6937;56.096;12.664;2022-08-21T06:36:36;3.90;;;1.38;;
13731;SDS011;6937;56.096;12.664;2022-08-21T06:39:02;3.50;;;1.73;;
13731;SDS011;6937;56.096;12.664;2022-08-21T06:41:28;5.03;;;1.77;;
13731;SDS011;6937;56.096;12.664;2022-08-21T06:43:54;4.35;;;1.60;;
13731;SDS011;6937;56.096;12.664;2022-08-21T06:46:20;4.20;;;1.98;;
13731;SDS011;6937;56.096;12.664;2022-08-21T06:48:46;5.43;;;1.48;;
13731;SDS011;6937;56.096;12.664;2022-08-21T06:51:12;5.13;;;1.65;;
13731;SDS011;6937;56.096;12.664;2022-08-21T06:53:38;4.70;;;1.58;;
13731;SDS011;6937;56.096;12.664;2022-08-21T06:56:03;3.22;;;1.40;;
13731;SDS011;6937;56.096;12.664;2022-08-21T06:58:29;4.57;;;1.80;;
13731;SDS011;6937;56.096;12.664;2022-08-21T07:00:55;3.13;;;1.15;;
13731;SDS011;6937;56.096;12.664;2022-08-21T07:03:25;3.75;;;1.52;;
13731;SDS011;6937;56.096;12.664;2022-08-21T07:05:53;4.28;;;1.30;;
13731;SDS011;6937;56.096;12.664;2022-08-21T07:08:19;3.03;;;1.20;;
13731;SDS011;6937;56.096;12.664;2022-08-21T07:10:46;3.72;;;1.40;;
13731;SDS011;6937;56.096;12.664;2022-08-21T07:13:13;3.83;;;1.40;;
13731;SDS011;6937;56.096;12.664;2022-08-21T07:15:38;2.80;;;1.20;;
13731;SDS011;6937;56.096;12.664;2022-08-21T07:18:04;3.63;;;1.40;;
13731;SDS011;6937;56.096;12.664;2022-08-21T07:20:30;4.05;;;1.23;;
13731;SDS011;6937;56.096;12.664;2022-08-21T07:22:56;2.00;;;1.15;;
13731;SDS011;6937;56.096;12.664;2022-08-21T07:25:24;3.38;;;1.23;;
13731;SDS011;6937;56.096;12.664;2022-08-21T07:27:49;4.40;;;1.20;;
13731;SDS011;6937;56.096;12.664;2022-08-21T07:30:15;3.65;;;1.27;;
13731;SDS011;6937;56.096;12.664;2022-08-21T07:32:40;2.33;;;1.35;;
13731;SDS011;6937;56.096;12.664;2022-08-21T07:35:06;4.50;;;1.40;;
13731;SDS011;6937;56.096;12.664;2022-08-21T07:37:32;2.42;;;1.10;;
13731;SDS011;6937;56.096;12.664;2022-08-21T07:39:57;3.17;;;1.33;;
13731;SDS011;6937;56.096;12.664;2022-08-21T07:42:23;4.88;;;1.50;;
13731;SDS011;6937;56.096;12.664;2022-08-21T07:44:48;4.47;;;1.45;;
13731;SDS011;6937;56.096;12.664;2022-08-21T07:47:13;3.75;;;1.20;;
13731;SDS011;6937;56.096;12.664;2022-08-21T07:49:39;2.67;;;1.30;;
13731;SDS011;6937;56.096;12.664;2022-08-21T07:52:04;3.67;;;1.35;;
13731;SDS011;6937;56.096;12.664;2022-08-21T07:54:30;3.30;;;1.48;;
13731;SDS011;6937;56.096;12.664;2022-08-21T07:56:55;3.45;;;1.40;;
13731;SDS011;6937;56.096;12.664;2022-08-21T07:59:21;4.88;;;1.85;;
13731;SDS011;6937;56.096;12.664;2022-08-21T08:01:46;3.70;;;1.65;;
13731;SDS011;6937;56.096;12.664;2022-08-21T08:04:11;3.92;;;1.10;;
13731;SDS011;6937;56.096;12.664;2022-08-21T08:06:37;2.38;;;1.35;;
13731;SDS011;6937;56.096;12.664;2022-08-21T08:09:02;4.63;;;1.42;;
13731;SDS011;6937;56.096;12.664;2022-08-21T08:11:29;4.45;;;1.77;;
13731;SDS011;6937;56.096;12.664;2022-08-21T08:13:55;3.50;;;1.50;;
13731;SDS011;6937;56.096;12.664;2022-08-21T08:16:22;2.72;;;1.40;;
13731;SDS011;6937;56.096;12.664;2022-08-21T08:18:48;4.68;;;1.40;;
13731;SDS011;6937;56.096;12.664;2022-08-21T08:21:13;3.95;;;1.38;;
13731;SDS011;6937;56.096;12.664;2022-08-21T08:23:39;2.47;;;1.17;;
13731;SDS011;6937;56.096;12.664;2022-08-21T08:29:25;2.55;;;1.17;;
13731;SDS011;6937;56.096;12.664;2022-08-21T08:31:50;3.92;;;1.58;;
13731;SDS011;6937;56.096;12.664;2022-08-21T08:34:16;3.42;;;1.38;;
13731;SDS011;6937;56.096;12.664;2022-08-21T08:36:41;3.08;;;1.27;;
13731;SDS011;6937;56.096;12.664;2022-08-21T08:39:06;3.60;;;1.40;;
13731;SDS011;6937;56.096;12.664;2022-08-21T08:41:32;4.10;;;1.50;;
13731;SDS011;6937;56.096;12.664;2022-08-21T08:43:59;3.67;;;1.67;;
13731;SDS011;6937;56.096;12.664;2022-08-21T08:46:41;5.53;;;1.60;;
13731;SDS011;6937;56.096;12.664;2022-08-21T08:49:11;4.68;;;1.50;;
13731;SDS011;6937;56.096;12.664;2022-08-21T08:51:42;2.75;;;1.83;;
13731;SDS011;6937;56.096;12.664;2022-08-21T08:54:17;5.75;;;1.70;;
13731;SDS011;6937;56.096;12.664;2022-08-21T08:56:51;6.38;;;1.55;;
13731;SDS011;6937;56.096;12.664;2022-08-21T08:59:20;4.25;;;1.77;;
13731;SDS011;6937;56.096;12.664;2022-08-21T09:01:52;3.58;;;1.40;;
13731;SDS011;6937;56.096;12.664;2022-08-21T09:04:19;4.00;;;1.45;;
13731;SDS011;6937;56.096;12.664;2022-08-21T09:09:50;5.10;;;1.45;;
13731;SDS011;6937;56.096;12.664;2022-08-21T09:12:17;3.15;;;1.55;;
13731;SDS011;6937;56.096;12.664;2022-08-21T09:20:32;3.75;;;1.38;;
13731;SDS011;6937;56.096;12.664;2022-08-21T09:23:18;4.60;;;1.30;;
13731;SDS011;6937;56.096;12.664;2022-08-21T09:26:16;2.33;;;1.20;;
13731;SDS011;6937;56.096;12.664;2022-08-21T09:28:43;3.38;;;1.40;;
13731;SDS011;6937;56.096;12.664;2022-08-21T09:31:21;2.67;;;1.20;;
13731;SDS011;6937;56.096;12.664;2022-08-21T09:34:05;3.83;;;1.52;;
13731;SDS011;6937;56.096;12.664;2022-08-21T09:36:38;4.68;;;1.30;;
13731;SDS011;6937;56.096;12.664;2022-08-21T09:39:07;2.97;;;1.17;;
13731;SDS011;6937;56.096;12.664;2022-08-21T09:41:34;3.08;;;1.30;;
13731;SDS011;6937;56.096;12.664;2022-08-21T09:44:01;3.28;;;1.50;;
13731;SDS011;6937;56.096;12.664;2022-08-21T09:46:27;2.88;;;1.50;;
13731;SDS011;6937;56.096;12.664;2022-08-21T09:48:54;3.03;;;1.42;;
13731;SDS011;6937;56.096;12.664;2022-08-21T09:51:29;5.07;;;1.50;;
13731;SDS011;6937;56.096;12.664;2022-08-21T09:56:36;5.00;;;1.40;;
13731;SDS011;6937;56.096;12.664;2022-08-21T09:59:35;4.65;;;1.30;;
13731;SDS011;6937;56.096;12.664;2022-08-21T10:04:59;5.85;;;2.20;;
13731;SDS011;6937;56.096;12.664;2022-08-21T10:07:32;5.30;;;1.90;;
13731;SDS011;6937;56.096;12.664;2022-08-21T10:12:30;4.10;;;1.80;;
13731;SDS011;6937;56.096;12.664;2022-08-21T10:23:27;3.42;;;1.60;;
13731;SDS011;6937;56.096;12.664;2022-08-21T10:29:23;3.80;;;1.50;;
13731;SDS011;6937;56.096;12.664;2022-08-21T10:43:09;4.28;;;1.52;;
13731;SDS011;6937;56.096;12.664;2022-08-21T10:46:16;2.58;;;1.30;;
13731;SDS011;6937;56.096;12.664;2022-08-21T10:48:50;4.40;;;1.77;;
13731;SDS011;6937;56.096;12.664;2022-08-21T10:51:40;2.10;;;1.00;;
13731;SDS011;6937;56.096;12.664;2022-08-21T10:54:31;2.58;;;1.30;;
13731;SDS011;6937;56.096;12.664;2022-08-21T11:00:22;4.88;;;2.00;;
13731;SDS011;6937;56.096;12.664;2022-08-21T11:05:40;2.03;;;1.30;;
13731;SDS011;6937;56.096;12.664;2022-08-21T11:08:35;2.20;;;1.00;;
13731;SDS011;6937;56.096;12.664;2022-08-21T11:11:12;1.70;;;1.25;;
13731;SDS011;6937;56.096;12.664;2022-08-21T11:13:56;2.53;;;1.15;;
13731;SDS011;6937;56.096;12.664;2022-08-21T11:19:11;2.45;;;1.52;;
13731;SDS011;6937;56.096;12.664;2022-08-21T11:21:43;4.38;;;1.27;;
13731;SDS011;6937;56.096;12.664;2022-08-21T11:24:21;3.25;;;1.30;;
13731;SDS011;6937;56.096;12.664;2022-08-21T11:29:58;3.47;;;1.20;;
13731;SDS011;6937;56.096;12.664;2022-08-21T11:35:27;3.80;;;1.50;;
13731;SDS011;6937;56.096;12.664;2022-08-21T11:43:45;4.05;;;1.50;;
13731;SDS011;6937;56.096;12.664;2022-08-21T11:46:31;2.30;;;1.40;;
13731;SDS011;6937;56.096;12.664;2022-08-21T11:52:34;4.15;;;1.60;;
13731;SDS011;6937;56.096;12.664;2022-08-21T11:55:12;3.63;;;1.60;;
13731;SDS011;6937;56.096;12.664;2022-08-21T11:57:49;2.42;;;1.38;;
13731;SDS011;6937;56.096;12.664;2022-08-21T12:00:25;4.25;;;1.40;;
13731;SDS011;6937;56.096;12.664;2022-08-21T12:02:55;5.70;;;1.77;;
13731;SDS011;6937;56.096;12.664;2022-08-21T12:05:30;3.13;;;1.20;;
13731;SDS011;6937;56.096;12.664;2022-08-21T12:08:45;3.55;;;1.45;;
13731;SDS011;6937;56.096;12.664;2022-08-21T12:13:29;2.97;;;1.50;;
13731;SDS011;6937;56.096;12.664;2022-08-21T12:16:07;4.28;;;1.20;;
13731;SDS011;6937;56.096;12.664;2022-08-21T12:18:41;2.30;;;1.20;;
13731;SDS011;6937;56.096;12.664;2022-08-21T12:21:21;2.92;;;1.20;;
13731;SDS011;6937;56.096;12.664;2022-08-21T12:23:49;4.00;;;1.38;;
13731;SDS011;6937;56.096;12.664;2022-08-21T12:26:36;3.50;;;1.13;;
13731;SDS011;6937;56.096;12.664;2022-08-21T12:29:32;2.45;;;1.33;;
13731;SDS011;6937;56.096;12.664;2022-08-21T12:37:16;2.53;;;1.00;;
13731;SDS011;6937;56.096;12.664;2022-08-21T12:39:46;2.08;;;1.27;;
13731;SDS011;6937;56.096;12.664;2022-08-21T12:44:54;1.88;;;1.00;;
13731;SDS011;6937;56.096;12.664;2022-08-21T12:47:36;1.85;;;1.00;;
13731;SDS011;6937;56.096;12.664;2022-08-21T12:50:11;2.33;;;1.08;;
13731;SDS011;6937;56.096;12.664;2022-08-21T12:52:48;3.67;;;1.33;;
13731;SDS011;6937;56.096;12.664;2022-08-21T12:55:25;3.13;;;1.25;;
13731;SDS011;6937;56.096;12.664;2022-08-21T12:57:55;2.20;;;1.23;;
13731;SDS011;6937;56.096;12.664;2022-08-21T13:00:22;2.53;;;1.15;;
13731;SDS011;6937;56.096;12.664;2022-08-21T13:02:50;2.60;;;1.20;;
13731;SDS011;6937;56.096;12.664;2022-08-21T13:05:24;2.55;;;1.17;;
13731;SDS011;6937;56.096;12.664;2022-08-21T13:07:56;3.25;;;1.40;;
13731;SDS011;6937;56.096;12.664;2022-08-21T13:10:26;2.55;;;1.40;;
13731;SDS011;6937;56.096;12.664;2022-08-21T13:12:55;2.92;;;1.30;;
13731;SDS011;6937;56.096;12.664;2022-08-21T13:15:30;2.03;;;1.30;;
13731;SDS011;6937;56.096;12.664;2022-08-21T13:17:58;3.08;;;1.35;;
13731;SDS011;6937;56.096;12.664;2022-08-21T13:20:28;3.40;;;1.50;;
13731;SDS011;6937;56.096;12.664;2022-08-21T13:23:00;1.85;;;1.10;;
13731;SDS011;6937;56.096;12.664;2022-08-21T13:25:28;3.45;;;1.50;;
13731;SDS011;6937;56.096;12.664;2022-08-21T13:28:00;4.00;;;1.20;;
13731;SDS011;6937;56.096;12.664;2022-08-21T13:30:29;2.28;;;1.20;;
13731;SDS011;6937;56.096;12.664;2022-08-21T13:32:56;2.92;;;1.40;;
13731;SDS011;6937;56.096;12.664;2022-08-21T13:35:47;2.70;;;1.33;;
13731;SDS011;6937;56.096;12.664;2022-08-21T13:38:19;3.47;;;1.58;;
13731;SDS011;6937;56.096;12.664;2022-08-21T13:41:03;2.95;;;1.33;;
13731;SDS011;6937;56.096;12.664;2022-08-21T13:43:35;2.60;;;1.50;;
13731;SDS011;6937;56.096;12.664;2022-08-21T13:46:02;2.47;;;1.30;;
13731;SDS011;6937;56.096;12.664;2022-08-21T13:48:34;3.80;;;1.33;;
13731;SDS011;6937;56.096;12.664;2022-08-21T13:51:01;2.33;;;1.30;;
13731;SDS011;6937;56.096;12.664;2022-08-21T13:53:28;3.80;;;1.70;;
13731;SDS011;6937;56.096;12.664;2022-08-21T13:56:31;3.45;;;1.20;;
13731;SDS011;6937;56.096;12.664;2022-08-21T13:58:58;3.22;;;1.48;;
13731;SDS011;6937;56.096;12.664;2022-08-21T14:01:27;2.55;;;1.45;;
13731;SDS011;6937;56.096;12.664;2022-08-21T14:04:36;4.50;;;1.80;;
13731;SDS011;6937;56.096;12.664;2022-08-21T14:06:59;3.55;;;1.58;;
13731;SDS011;6937;56.096;12.664;2022-08-21T14:09:33;3.47;;;1.20;;
13731;SDS011;6937;56.096;12.664;2022-08-21T14:12:19;3.70;;;1.58;;
13731;SDS011;6937;56.096;12.664;2022-08-21T14:14:51;2.45;;;1.35;;
13731;SDS011;6937;56.096;12.664;2022-08-21T14:17:27;3.63;;;1.30;;
13731;SDS011;6937;56.096;12.664;2022-08-21T14:20:00;2.25;;;1.23;;
13731;SDS011;6937;56.096;12.664;2022-08-21T14:22:30;2.92;;;1.40;;
13731;SDS011;6937;56.096;12.664;2022-08-21T14:27:44;2.15;;;1.20;;
13731;SDS011;6937;56.096;12.664;2022-08-21T14:30:19;3.72;;;1.30;;
13731;SDS011;6937;56.096;12.664;2022-08-21T14:32:51;4.63;;;1.40;;
13731;SDS011;6937;56.096;12.664;2022-08-21T14:35:17;3.88;;;1.50;;
13731;SDS011;6937;56.096;12.664;2022-08-21T14:37:43;3.05;;;1.27;;
13731;SDS011;6937;56.096;12.664;2022-08-21T14:40:10;4.18;;;1.60;;
13731;SDS011;6937;56.096;12.664;2022-08-21T14:42:37;2.83;;;1.45;;
13731;SDS011;6937;56.096;12.664;2022-08-21T14:45:07;3.85;;;1.65;;
13731;SDS011;6937;56.096;12.664;2022-08-21T14:47:38;4.85;;;1.77;;
13731;SDS011;6937;56.096;12.664;2022-08-21T14:50:03;5.47;;;1.50;;
13731;SDS011;6937;56.096;12.664;2022-08-21T14:52:29;6.18;;;1.90;;
13731;SDS011;6937;56.096;12.664;2022-08-21T14:54:54;4.20;;;1.60;;
13731;SDS011;6937;56.096;12.664;2022-08-21T14:57:20;4.55;;;1.45;;
13731;SDS011;6937;56.096;12.664;2022-08-21T14:59:45;4.70;;;1.90;;
13731;SDS011;6937;56.096;12.664;2022-08-21T15:02:11;4.55;;;1.75;;
13731;SDS011;6937;56.096;12.664;2022-08-21T15:04:36;4.90;;;1.90;;
13731;SDS011;6937;56.096;12.664;2022-08-21T15:07:02;3.05;;;1.48;;
13731;SDS011;6937;56.096;12.664;2022-08-21T15:09:28;3.30;;;1.30;;
13731;SDS011;6937;56.096;12.664;2022-08-21T15:11:55;6.72;;;2.42;;
13731;SDS011;6937;56.096;12.664;2022-08-21T15:14:25;4.80;;;2.60;;
13731;SDS011;6937;56.096;12.664;2022-08-21T15:16:53;3.33;;;2.10;;
13731;SDS011;6937;56.096;12.664;2022-08-21T15:19:18;3.20;;;1.70;;
13731;SDS011;6937;56.096;12.664;2022-08-21T15:21:44;4.18;;;1.55;;
13731;SDS011;6937;56.096;12.664;2022-08-21T15:24:10;2.63;;;1.42;;
13731;SDS011;6937;56.096;12.664;2022-08-21T15:26:36;4.78;;;1.80;;
13731;SDS011;6937;56.096;12.664;2022-08-21T15:29:02;2.30;;;1.40;;
13731;SDS011;6937;56.096;12.664;2022-08-21T15:31:29;4.82;;;2.00;;
13731;SDS011;6937;56.096;12.664;2022-08-21T15:33:54;3.88;;;2.65;;
13731;SDS011;6937;56.096;12.664;2022-08-21T15:36:20;4.15;;;2.05;;
13731;SDS011;6937;56.096;12.664;2022-08-21T15:38:45;2.13;;;1.40;;
13731;SDS011;6937;56.096;12.664;2022-08-21T15:41:11;6.18;;;4.53;;
13731;SDS011;6937;56.096;12.664;2022-08-21T15:43:42;2.38;;;1.55;;
13731;SDS011;6937;56.096;12.664;2022-08-21T15:46:12;6.60;;;2.13;;
13731;SDS011;6937;56.096;12.664;2022-08-21T15:48:39;4.72;;;2.60;;
13731;SDS011;6937;56.096;12.664;2022-08-21T15:51:05;3.50;;;2.08;;
13731;SDS011;6937;56.096;12.664;2022-08-21T15:53:31;2.60;;;1.75;;
13731;SDS011;6937;56.096;12.664;2022-08-21T15:56:03;4.35;;;2.05;;
13731;SDS011;6937;56.096;12.664;2022-08-21T15:58:29;3.85;;;2.08;;
13731;SDS011;6937;56.096;12.664;2022-08-21T16:00:55;3.25;;;1.70;;
13731;SDS011;6937;56.096;12.664;2022-08-21T16:03:24;4.97;;;2.38;;
13731;SDS011;6937;56.096;12.664;2022-08-21T16:05:51;2.47;;;1.60;;
13731;SDS011;6937;56.096;12.664;2022-08-21T16:08:17;3.88;;;1.35;;
13731;SDS011;6937;56.096;12.664;2022-08-21T16:10:44;3.22;;;2.25;;
13731;SDS011;6937;56.096;12.664;2022-08-21T16:13:25;3.20;;;1.50;;
13731;SDS011;6937;56.096;12.664;2022-08-21T16:15:54;4.90;;;1.30;;
13731;SDS011;6937;56.096;12.664;2022-08-21T16:18:19;2.60;;;1.10;;
13731;SDS011;6937;56.096;12.664;2022-08-21T16:20:47;5.60;;;1.58;;